Time;durP1;ratioP1;P1;durP2;ratioP2;P2;SDS_P1;SDS_P2;PMS_P1;PMS_P2;Temp;Humidity;BMP_temperature;BMP_pressure;BME280_temperature;BME280_humidity;BME280_pressure;Samples;Min_cycle;Max_cycle;Signal;HPM_P1;HPM_P2
2023/06/13 00:01:22;;;;;;;8.13;3.60;;;;;;;;;;5053388;28;20107;-68
2023/06/13 00:03:48;;;;;;;7.15;3.58;;;;;;;;;;5054403;28;20088;-69
2023/06/13 00:06:18;;;;;;;7.28;3.60;;;;;;;;;;5053111;28;20041;-68
2023/06/13 00:08:43;;;;;;;8.20;3.40;;;;;;;;;;5054227;28;20028;-68
2023/06/13 00:11:09;;;;;;;9.20;3.65;;;;;;;;;;5056441;28;20043;-68
2023/06/13 00:13:34;;;;;;;6.30;3.67;;;;;;;;;;5054706;28;20021;-68
2023/06/13 00:16:00;;;;;;;5.85;3.60;;;;;;;;;;5053397;28;20580;-68
2023/06/13 00:18:29;;;;;;;9.57;3.50;;;;;;;;;;5051181;28;20029;-67
2023/06/13 00:20:54;;;;;;;9.13;3.85;;;;;;;;;;5053806;28;20113;-68
2023/06/13 00:23:20;;;;;;;6.50;3.50;;;;;;;;;;5053801;28;20052;-68
2023/06/13 00:25:45;;;;;;;8.85;3.40;;;;;;;;;;5053653;28;20025;-68
2023/06/13 00:28:10;;;;;;;7.72;3.45;;;;;;;;;;5053294;28;20410;-69
2023/06/13 00:30:36;;;;;;;6.85;3.33;;;;;;;;;;5050516;28;20063;-68
2023/06/13 00:33:01;;;;;;;8.20;3.70;;;;;;;;;;5055108;28;20115;-68
2023/06/13 00:35:26;;;;;;;5.13;3.22;;;;;;;;;;5063409;28;20036;-68
2023/06/13 00:37:54;;;;;;;7.22;3.30;;;;;;;;;;5053147;28;20032;-68
2023/06/13 00:40:19;;;;;;;11.13;3.38;;;;;;;;;;5053056;28;20024;-68
2023/06/13 00:42:45;;;;;;;9.32;3.65;;;;;;;;;;5051141;28;20031;-68
2023/06/13 00:45:17;;;;;;;7.75;3.60;;;;;;;;;;5053073;28;20033;-67
2023/06/13 00:47:42;;;;;;;8.77;3.28;;;;;;;;;;5051883;28;20043;-68
2023/06/13 00:50:08;;;;;;;9.25;3.60;;;;;;;;;;5053276;28;20107;-68
2023/06/13 00:52:34;;;;;;;5.60;3.50;;;;;;;;;;5052294;28;20087;-68
2023/06/13 00:54:59;;;;;;;6.78;3.47;;;;;;;;;;5053426;28;20029;-67
2023/06/13 00:57:25;;;;;;;11.98;3.28;;;;;;;;;;5053267;28;20032;-68
2023/06/13 00:59:50;;;;;;;5.90;3.33;;;;;;;;;;5050959;28;20025;-67
2023/06/13 01:02:20;;;;;;;6.28;3.45;;;;;;;;;;5048891;28;20033;-67
2023/06/13 01:04:47;;;;;;;9.27;3.70;;;;;;;;;;5048789;28;20033;-67
2023/06/13 01:07:14;;;;;;;8.93;3.75;;;;;;;;;;5053588;28;20024;-67
2023/06/13 01:09:39;;;;;;;7.90;3.85;;;;;;;;;;5053608;28;20100;-69
2023/06/13 01:12:11;;;;;;;9.60;3.70;;;;;;;;;;5055517;28;20041;-67
2023/06/13 01:14:56;;;;;;;9.50;3.63;;;;;;;;;;5069456;28;20037;-67
2023/06/13 01:17:26;;;;;;;8.35;3.88;;;;;;;;;;5057278;28;20024;-68
2023/06/13 01:19:58;;;;;;;8.85;4.20;;;;;;;;;;5052187;28;20112;-67
2023/06/13 01:22:23;;;;;;;;;;;;;;;;;;5052052;28;20155;-67
2023/06/13 01:25:04;;;;;;;7.70;3.67;;;;;;;;;;5057483;28;19995;-67
2023/06/13 01:27:30;;;;;;;8.02;3.75;;;;;;;;;;5052516;28;20029;-67
2023/06/13 01:29:56;;;;;;;8.63;4.00;;;;;;;;;;5053053;28;20142;-63
2023/06/13 01:32:22;;;;;;;6.25;3.13;;;;;;;;;;5051916;28;20024;-63
2023/06/13 01:34:48;;;;;;;5.82;3.28;;;;;;;;;;5070672;28;20036;-62
2023/06/13 01:37:16;;;;;;;6.30;3.40;;;;;;;;;;5065105;28;20475;-63
2023/06/13 01:39:43;;;;;;;8.80;3.53;;;;;;;;;;5064468;28;20078;-62
2023/06/13 01:42:08;;;;;;;7.03;3.65;;;;;;;;;;5064570;28;20494;-63
2023/06/13 01:44:34;;;;;;;6.22;3.28;;;;;;;;;;5067239;28;20020;-62
2023/06/13 01:47:07;;;;;;;8.27;3.28;;;;;;;;;;5059620;28;20032;-63
2023/06/13 01:49:53;;;;;;;8.15;3.35;;;;;;;;;;5064383;28;20020;-63
2023/06/13 01:52:26;;;;;;;6.78;3.47;;;;;;;;;;5039518;28;20035;-63
2023/06/13 01:55:00;;;;;;;9.75;4.25;;;;;;;;;;5054839;28;20471;-63
2023/06/13 01:57:28;;;;;;;8.68;3.42;;;;;;;;;;5050981;28;20036;-63
2023/06/13 01:59:55;;;;;;;8.13;3.80;;;;;;;;;;5050917;28;20060;-63
2023/06/13 02:02:21;;;;;;;6.07;3.15;;;;;;;;;;5049481;28;20052;-63
2023/06/13 02:04:48;;;;;;;6.53;3.38;;;;;;;;;;5064307;28;20378;-63
2023/06/13 02:07:13;;;;;;;5.85;3.25;;;;;;;;;;5050004;28;20013;-63
2023/06/13 02:09:39;;;;;;;9.48;3.30;;;;;;;;;;5052333;28;20394;-64
2023/06/13 02:12:04;;;;;;;5.63;3.40;;;;;;;;;;5048705;28;20048;-63
2023/06/13 02:14:32;;;;;;;8.68;3.70;;;;;;;;;;5066763;28;20025;-63
2023/06/13 02:16:59;;;;;;;8.10;3.30;;;;;;;;;;5068668;28;20018;-63
2023/06/13 02:19:25;;;;;;;7.53;3.40;;;;;;;;;;5047607;28;20059;-62
2023/06/13 02:21:50;;;;;;;5.73;3.53;;;;;;;;;;5050045;28;20099;-62
2023/06/13 02:24:16;;;;;;;6.30;3.65;;;;;;;;;;5062748;28;20017;-63
2023/06/13 02:26:41;;;;;;;6.13;3.47;;;;;;;;;;5055664;28;20044;-64
2023/06/13 02:29:07;;;;;;;9.93;3.50;;;;;;;;;;5049820;28;20564;-62
2023/06/13 02:31:38;;;;;;;5.90;3.27;;;;;;;;;;5052470;28;20049;-63
2023/06/13 02:34:03;;;;;;;6.83;3.17;;;;;;;;;;5060856;28;20107;-62
2023/06/13 02:36:28;;;;;;;5.93;3.07;;;;;;;;;;5068518;28;20048;-63
2023/06/13 02:38:54;;;;;;;7.67;3.57;;;;;;;;;;5050086;28;20027;-62
2023/06/13 02:41:19;;;;;;;7.63;3.50;;;;;;;;;;5052595;28;20509;-63
2023/06/13 02:43:45;;;;;;;7.53;3.17;;;;;;;;;;5048947;28;20017;-67
2023/06/13 02:46:10;;;;;;;9.03;3.27;;;;;;;;;;5048407;28;20031;-64
2023/06/13 02:48:36;;;;;;;5.33;3.07;;;;;;;;;;5054329;28;20025;-68
2023/06/13 02:51:02;;;;;;;9.40;3.30;;;;;;;;;;5072177;28;20421;-64
2023/06/13 02:53:27;;;;;;;8.37;3.20;;;;;;;;;;5069830;28;20012;-64
2023/06/13 02:55:54;;;;;;;7.50;3.10;;;;;;;;;;5075424;28;20501;-64
2023/06/13 02:58:21;;;;;;;5.57;3.20;;;;;;;;;;5065706;28;20035;-64
2023/06/13 03:00:47;;;;;;;9.27;3.03;;;;;;;;;;5055766;28;20028;-70
2023/06/13 03:03:18;;;;;;;7.03;3.10;;;;;;;;;;5054396;28;20490;-69
2023/06/13 03:05:44;;;;;;;6.20;3.00;;;;;;;;;;5070945;28;20040;-68
2023/06/13 03:08:10;;;;;;;8.30;3.30;;;;;;;;;;5058667;28;20110;-66
2023/06/13 03:10:35;;;;;;;5.97;2.87;;;;;;;;;;5055666;28;20017;-69
2023/06/13 03:13:00;;;;;;;8.97;3.67;;;;;;;;;;5055774;28;20024;-62
2023/06/13 03:15:27;;;;;;;6.70;3.03;;;;;;;;;;5075790;28;20031;-68
2023/06/13 03:17:52;;;;;;;6.60;3.27;;;;;;;;;;5066608;28;20027;-62
2023/06/13 03:20:20;;;;;;;9.13;3.40;;;;;;;;;;5054096;28;20046;-62
2023/06/13 03:22:45;;;;;;;8.47;2.87;;;;;;;;;;5055678;28;20490;-62
2023/06/13 03:25:11;;;;;;;10.50;3.03;;;;;;;;;;5060116;28;20025;-62
2023/06/13 03:27:37;;;;;;;6.30;2.87;;;;;;;;;;5052365;28;20024;-62
2023/06/13 03:30:08;;;;;;;7.60;2.80;;;;;;;;;;5055164;28;20024;-62
2023/06/13 03:32:34;;;;;;;6.18;2.88;;;;;;;;;;5053705;28;20380;-65
2023/06/13 03:35:00;;;;;;;6.50;2.90;;;;;;;;;;5046638;28;20037;-63
2023/06/13 03:37:25;;;;;;;7.47;2.90;;;;;;;;;;5068579;28;20375;-62
2023/06/13 03:39:50;;;;;;;7.37;2.80;;;;;;;;;;5074390;28;20043;-62
2023/06/13 03:42:16;;;;;;;6.33;3.23;;;;;;;;;;5074968;28;20047;-62
2023/06/13 03:47:12;;;;;;;7.27;2.67;;;;;;;;;;5050851;28;20028;-64
2023/06/13 03:49:37;;;;;;;9.27;2.80;;;;;;;;;;5050186;28;20427;-62
2023/06/13 03:52:03;;;;;;;5.00;2.60;;;;;;;;;;5053214;28;20124;-62
2023/06/13 03:54:28;;;;;;;4.80;2.50;;;;;;;;;;5059102;28;20032;-61
2023/06/13 03:56:53;;;;;;;7.85;2.80;;;;;;;;;;5050389;28;20047;-62
2023/06/13 03:59:19;;;;;;;6.00;2.67;;;;;;;;;;5047215;28;20016;-63
2023/06/13 04:01:44;;;;;;;5.33;2.60;;;;;;;;;;5043961;28;20021;-62
2023/06/13 04:04:13;;;;;;;7.80;2.90;;;;;;;;;;5046325;28;20049;-63
2023/06/13 04:06:38;;;;;;;5.35;2.95;;;;;;;;;;5048035;28;20025;-63
2023/06/13 04:09:05;;;;;;;8.98;2.80;;;;;;;;;;5050407;28;20032;-62
2023/06/13 04:11:30;;;;;;;5.47;2.70;;;;;;;;;;5050386;28;20021;-63
2023/06/13 04:13:56;;;;;;;5.00;2.55;;;;;;;;;;5057680;28;20628;-62
2023/06/13 04:16:21;;;;;;;5.30;2.40;;;;;;;;;;5053410;28;20056;-62
2023/06/13 04:18:46;;;;;;;4.93;2.55;;;;;;;;;;5051916;28;20012;-61
2023/06/13 04:21:12;;;;;;;4.78;2.42;;;;;;;;;;5052625;28;20032;-62
2023/06/13 04:23:38;;;;;;;5.95;2.40;;;;;;;;;;5063586;28;20228;-62
2023/06/13 04:26:03;;;;;;;3.92;2.20;;;;;;;;;;5062789;28;20052;-62
2023/06/13 04:28:29;;;;;;;6.40;2.50;;;;;;;;;;5052808;28;20013;-65
2023/06/13 04:30:56;;;;;;;8.88;2.72;;;;;;;;;;5053837;28;20094;-62
2023/06/13 04:33:23;;;;;;;9.40;2.60;;;;;;;;;;5059093;28;20028;-64
2023/06/13 04:35:49;;;;;;;3.65;2.15;;;;;;;;;;5053665;28;20467;-62
2023/06/13 04:38:16;;;;;;;4.60;2.50;;;;;;;;;;5053799;28;20021;-62
2023/06/13 04:40:41;;;;;;;7.43;2.80;;;;;;;;;;5053339;28;20493;-62
2023/06/13 04:43:09;;;;;;;8.80;2.63;;;;;;;;;;5057840;28;20028;-62
2023/06/13 04:45:36;;;;;;;4.60;2.47;;;;;;;;;;5052165;28;20025;-63
2023/06/13 04:48:03;;;;;;;3.80;2.30;;;;;;;;;;5050126;28;20014;-62
2023/06/13 04:50:31;;;;;;;5.60;2.53;;;;;;;;;;5056802;28;20028;-63
2023/06/13 04:52:57;;;;;;;6.43;2.42;;;;;;;;;;5056033;28;20048;-64
2023/06/13 04:55:23;;;;;;;5.88;2.42;;;;;;;;;;5073425;28;20493;-64
2023/06/13 04:57:51;;;;;;;5.35;2.38;;;;;;;;;;5052350;28;20103;-64
2023/06/13 05:00:20;;;;;;;7.85;2.63;;;;;;;;;;5052991;28;20414;-64
2023/06/13 05:02:45;;;;;;;6.00;2.20;;;;;;;;;;5052269;28;20061;-64
2023/06/13 05:05:10;;;;;;;5.60;2.20;;;;;;;;;;5060370;28;20031;-63
2023/06/13 05:07:36;;;;;;;5.93;2.60;;;;;;;;;;5053224;28;20039;-64
2023/06/13 05:10:02;;;;;;;4.30;2.28;;;;;;;;;;5040496;28;20025;-61
2023/06/13 05:12:31;;;;;;;5.53;2.50;;;;;;;;;;5051468;28;20040;-65
2023/06/13 05:14:56;;;;;;;7.22;2.30;;;;;;;;;;5071484;28;20032;-63
2023/06/13 05:17:22;;;;;;;7.22;2.53;;;;;;;;;;5072320;28;20025;-64
2023/06/13 05:19:47;;;;;;;7.18;2.40;;;;;;;;;;5059823;28;20021;-64
2023/06/13 05:24:59;;;;;;;4.82;1.92;;;;;;;;;;5052162;28;20040;-63
2023/06/13 05:27:29;;;;;;;6.93;2.30;;;;;;;;;;5048357;28;20032;-63
2023/06/13 05:29:57;;;;;;;5.35;2.20;;;;;;;;;;5050218;28;20013;-63
2023/06/13 05:32:22;;;;;;;6.20;2.13;;;;;;;;;;5048676;28;20108;-67
2023/06/13 05:34:49;;;;;;;7.38;2.35;;;;;;;;;;5051263;28;20095;-68
2023/06/13 05:37:14;;;;;;;4.18;2.20;;;;;;;;;;5051924;28;20032;-68
2023/06/13 05:39:40;;;;;;;8.23;1.98;;;;;;;;;;5052916;28;20024;-68
2023/06/13 05:42:05;;;;;;;4.50;2.33;;;;;;;;;;5052149;28;20024;-68
2023/06/13 05:44:30;;;;;;;4.68;2.30;;;;;;;;;;5063379;28;20028;-62
2023/06/13 05:46:56;;;;;;;5.50;2.05;;;;;;;;;;5066649;28;20501;-62
2023/06/13 05:49:21;;;;;;;4.65;2.08;;;;;;;;;;5069461;28;20367;-63
2023/06/13 05:51:46;;;;;;;4.55;2.25;;;;;;;;;;5052940;28;20028;-64
2023/06/13 05:54:12;;;;;;;6.13;2.38;;;;;;;;;;5052248;28;20419;-63
2023/06/13 05:56:37;;;;;;;6.63;2.40;;;;;;;;;;5064879;28;20036;-62
2023/06/13 05:59:02;;;;;;;4.95;2.60;;;;;;;;;;5072858;28;20401;-63
2023/06/13 06:01:29;;;;;;;8.27;2.65;;;;;;;;;;5055532;28;20037;-63
2023/06/13 06:04:06;;;;;;;10.90;3.30;;;;;;;;;;5052833;28;20049;-62
2023/06/13 06:06:34;;;;;;;4.80;2.70;;;;;;;;;;5056269;28;20021;-63
2023/06/13 06:09:15;;;;;;;4.55;2.40;;;;;;;;;;5052667;28;20096;-70
2023/06/13 06:11:40;;;;;;;7.72;2.85;;;;;;;;;;5049622;28;20025;-63
2023/06/13 06:14:05;;;;;;;5.15;2.60;;;;;;;;;;5054785;28;20494;-64
2023/06/13 06:16:30;;;;;;;6.43;2.60;;;;;;;;;;5053209;28;20025;-64
2023/06/13 06:18:56;;;;;;;5.88;2.60;;;;;;;;;;5050636;28;20071;-63
2023/06/13 06:21:21;;;;;;;5.88;2.92;;;;;;;;;;5053315;28;20029;-64
2023/06/13 06:26:18;;;;;;;5.95;3.30;;;;;;;;;;5054455;28;20021;-63
2023/06/13 06:28:43;;;;;;;7.35;3.20;;;;;;;;;;5060293;28;20052;-63
2023/06/13 06:31:09;;;;;;;8.40;3.15;;;;;;;;;;5055016;28;20490;-65
2023/06/13 06:33:35;;;;;;;5.97;3.25;;;;;;;;;;5055205;28;20395;-62
2023/06/13 06:36:00;;;;;;;7.93;3.88;;;;;;;;;;5062290;28;20028;-63
2023/06/13 06:38:25;;;;;;;14.35;4.35;;;;;;;;;;5054508;28;20048;-62
2023/06/13 06:40:51;;;;;;;9.60;4.18;;;;;;;;;;5055167;28;20079;-62
2023/06/13 06:43:19;;;;;;;6.30;3.88;;;;;;;;;;5055566;28;20021;-62
2023/06/13 06:45:45;;;;;;;8.43;4.13;;;;;;;;;;5067097;28;20078;-61
2023/06/13 06:48:10;;;;;;;7.18;4.00;;;;;;;;;;5076266;28;20025;-64
2023/06/13 06:50:36;;;;;;;8.73;4.22;;;;;;;;;;5060936;28;20029;-63
2023/06/13 06:53:01;;;;;;;9.60;4.38;;;;;;;;;;5055574;28;20036;-62
2023/06/13 06:55:26;;;;;;;8.52;4.10;;;;;;;;;;5052816;28;20044;-65
2023/06/13 06:57:53;;;;;;;11.70;4.60;;;;;;;;;;5056175;28;20021;-65
2023/06/13 07:00:19;;;;;;;11.07;4.18;;;;;;;;;;5053938;28;20489;-65
2023/06/13 07:02:47;;;;;;;8.73;4.05;;;;;;;;;;5053237;28;20056;-65
2023/06/13 07:05:15;;;;;;;6.78;4.20;;;;;;;;;;5052934;28;20041;-66
2023/06/13 07:07:42;;;;;;;8.77;4.10;;;;;;;;;;5059015;28;20484;-65
2023/06/13 07:10:08;;;;;;;8.80;4.38;;;;;;;;;;5053636;28;20104;-62
2023/06/13 07:12:36;;;;;;;9.88;3.83;;;;;;;;;;5054313;28;20112;-66
2023/06/13 07:15:02;;;;;;;8.88;4.13;;;;;;;;;;5055133;28;20407;-69
2023/06/13 07:17:27;;;;;;;9.55;4.50;;;;;;;;;;5055589;28;20025;-64
2023/06/13 07:19:52;;;;;;;9.73;3.80;;;;;;;;;;5055799;28;20052;-64
2023/06/13 07:22:18;;;;;;;6.85;3.97;;;;;;;;;;5068102;28;20024;-64
2023/06/13 07:24:43;;;;;;;9.10;4.20;;;;;;;;;;5053235;28;20022;-64
2023/06/13 07:27:08;;;;;;;13.13;3.90;;;;;;;;;;5054987;28;20550;-64
2023/06/13 07:29:34;;;;;;;11.15;3.90;;;;;;;;;;5055613;28;20478;-64
2023/06/13 07:32:00;;;;;;;8.50;3.58;;;;;;;;;;5049985;28;20045;-64
2023/06/13 07:34:28;;;;;;;6.55;3.35;;;;;;;;;;5057508;28;20032;-64
2023/06/13 07:36:54;;;;;;;8.10;3.80;;;;;;;;;;5052255;28;20398;-64
2023/06/13 07:39:20;;;;;;;6.10;3.33;;;;;;;;;;5050182;28;20016;-64
2023/06/13 07:41:46;;;;;;;6.78;3.60;;;;;;;;;;5048644;28;20152;-64
2023/06/13 07:44:12;;;;;;;6.40;3.40;;;;;;;;;;5044747;28;20387;-64
2023/06/13 07:46:37;;;;;;;6.82;3.08;;;;;;;;;;5054125;28;20028;-64
2023/06/13 07:49:02;;;;;;;8.57;3.00;;;;;;;;;;5052161;28;20017;-66
2023/06/13 07:51:28;;;;;;;6.88;3.28;;;;;;;;;;5053039;28;20162;-65
2023/06/13 07:53:56;;;;;;;8.18;3.10;;;;;;;;;;5050700;28;20410;-66
2023/06/13 07:56:21;;;;;;;9.20;3.20;;;;;;;;;;5054007;28;20025;-64
2023/06/13 07:58:47;;;;;;;5.88;2.95;;;;;;;;;;5052642;28;20013;-65
2023/06/13 08:01:12;;;;;;;7.28;3.30;;;;;;;;;;5054128;28;20017;-65
2023/06/13 08:03:37;;;;;;;7.25;3.35;;;;;;;;;;5054996;28;20162;-67
2023/06/13 08:06:03;;;;;;;6.18;3.03;;;;;;;;;;5049162;28;20029;-67
2023/06/13 08:08:28;;;;;;;8.82;3.17;;;;;;;;;;5053728;28;20096;-69
2023/06/13 08:10:53;;;;;;;4.88;2.55;;;;;;;;;;5049678;28;20028;-67
2023/06/13 08:13:19;;;;;;;6.85;2.90;;;;;;;;;;5045886;28;20040;-69
2023/06/13 08:15:45;;;;;;;5.38;2.30;;;;;;;;;;5042669;28;20398;-67
2023/06/13 08:18:10;;;;;;;5.35;2.60;;;;;;;;;;5038725;28;20025;-66
2023/06/13 08:20:38;;;;;;;5.40;2.60;;;;;;;;;;5051902;28;20039;-66
2023/06/13 08:23:04;;;;;;;5.43;2.60;;;;;;;;;;5055598;28;20021;-67
2023/06/13 08:25:29;;;;;;;8.25;2.90;;;;;;;;;;5052489;28;20021;-67
2023/06/13 08:27:55;;;;;;;7.65;2.70;;;;;;;;;;5053174;28;20593;-67
2023/06/13 08:30:21;;;;;;;7.07;2.50;;;;;;;;;;5064692;28;20420;-68
2023/06/13 08:32:47;;;;;;;5.75;1.98;;;;;;;;;;5064160;28;20103;-66
2023/06/13 08:35:12;;;;;;;5.43;2.40;;;;;;;;;;5056024;28;20029;-67
2023/06/13 08:37:38;;;;;;;6.47;2.70;;;;;;;;;;5060870;28;20021;-67
2023/06/13 08:40:05;;;;;;;5.05;2.38;;;;;;;;;;5068769;28;20028;-66
2023/06/13 08:42:31;;;;;;;5.20;2.30;;;;;;;;;;5046154;28;20044;-66
2023/06/13 08:44:57;;;;;;;6.20;2.30;;;;;;;;;;5052374;28;20474;-67
2023/06/13 08:47:23;;;;;;;3.97;2.08;;;;;;;;;;5055585;28;20066;-67
2023/06/13 08:49:48;;;;;;;6.88;2.60;;;;;;;;;;5053071;28;20040;-65
2023/06/13 08:52:14;;;;;;;7.13;2.70;;;;;;;;;;5057473;28;20099;-68
2023/06/13 08:54:42;;;;;;;4.25;2.30;;;;;;;;;;5073838;28;20020;-67
2023/06/13 08:57:10;;;;;;;7.35;2.55;;;;;;;;;;5061410;28;20027;-72
2023/06/13 08:59:37;;;;;;;5.90;2.10;;;;;;;;;;5065778;28;20103;-70
2023/06/13 09:02:07;;;;;;;5.65;2.30;;;;;;;;;;5061760;28;20127;-70
2023/06/13 09:04:33;;;;;;;6.75;2.50;;;;;;;;;;5045739;28;20058;-65
2023/06/13 09:07:01;;;;;;;4.45;2.20;;;;;;;;;;5056900;28;20021;-67
2023/06/13 09:09:26;;;;;;;4.25;2.08;;;;;;;;;;5043298;28;20035;-68
2023/06/13 09:14:20;;;;;;;6.35;2.20;;;;;;;;;;5046729;28;20053;-67
2023/06/13 09:16:49;;;;;;;6.25;2.28;;;;;;;;;;5052842;28;20060;-66
2023/06/13 09:19:23;;;;;;;5.60;2.10;;;;;;;;;;5049121;28;20085;-66
2023/06/13 09:21:48;;;;;;;4.53;2.20;;;;;;;;;;5048416;28;20028;-67
2023/06/13 09:24:16;;;;;;;4.82;2.30;;;;;;;;;;5055725;28;20454;-67
2023/06/13 09:26:42;;;;;;;4.47;2.20;;;;;;;;;;5060630;28;20106;-66
2023/06/13 09:29:08;;;;;;;5.97;1.73;;;;;;;;;;5060749;28;20416;-65
2023/06/13 09:31:39;;;;;;;6.18;2.08;;;;;;;;;;5059787;28;20116;-67
2023/06/13 09:34:07;;;;;;;6.10;2.05;;;;;;;;;;5052604;28;20078;-66
2023/06/13 09:36:37;;;;;;;6.57;1.70;;;;;;;;;;5056791;28;20016;-68
2023/06/13 09:39:06;;;;;;;9.55;1.88;;;;;;;;;;5050976;28;20020;-65
2023/06/13 09:41:32;;;;;;;4.05;1.90;;;;;;;;;;5070193;28;20381;-64
2023/06/13 09:44:01;;;;;;;5.40;2.25;;;;;;;;;;5044439;28;20045;-66
2023/06/13 09:46:27;;;;;;;7.82;2.08;;;;;;;;;;5056184;28;20438;-66
2023/06/13 09:48:52;;;;;;;3.30;1.60;;;;;;;;;;5057591;28;20383;-67
2023/06/13 09:51:18;;;;;;;4.78;2.05;;;;;;;;;;5050116;28;20028;-67
2023/06/13 09:53:45;;;;;;;4.97;1.90;;;;;;;;;;5040014;28;20020;-67
2023/06/13 09:56:10;;;;;;;6.53;1.77;;;;;;;;;;5041094;28;20434;-67
2023/06/13 09:58:36;;;;;;;5.18;1.80;;;;;;;;;;5045423;28;20033;-67
2023/06/13 10:01:03;;;;;;;4.60;1.70;;;;;;;;;;5045840;28;20025;-67
2023/06/13 10:03:28;;;;;;;3.45;1.50;;;;;;;;;;5049797;28;20124;-67
2023/06/13 10:05:54;;;;;;;4.05;1.80;;;;;;;;;;5048838;28;20120;-64
2023/06/13 10:08:20;;;;;;;5.35;2.38;;;;;;;;;;5053526;28;20360;-65
2023/06/13 10:10:45;;;;;;;6.50;1.80;;;;;;;;;;5044679;28;20028;-64
2023/06/13 10:13:15;;;;;;;3.13;1.65;;;;;;;;;;5050082;28;20017;-66
2023/06/13 10:15:44;;;;;;;6.00;3.50;;;;;;;;;;5051478;28;20023;-64
2023/06/13 10:18:12;;;;;;;5.00;1.67;;;;;;;;;;5051132;28;20025;-65
2023/06/13 10:20:38;;;;;;;3.80;1.80;;;;;;;;;;5054697;28;20021;-66
2023/06/13 10:23:05;;;;;;;3.67;1.73;;;;;;;;;;5050056;28;20033;-66
2023/06/13 10:25:32;;;;;;;4.82;1.90;;;;;;;;;;5049562;28;20134;-66
2023/06/13 10:28:00;;;;;;;5.82;2.30;;;;;;;;;;5041249;28;20021;-64
2023/06/13 10:30:27;;;;;;;4.20;2.00;;;;;;;;;;5032502;28;20056;-65
2023/06/13 10:33:00;;;;;;;3.65;1.60;;;;;;;;;;5056203;28;20348;-66
2023/06/13 10:35:44;;;;;;;6.28;2.08;;;;;;;;;;5054496;28;20048;-65
2023/06/13 10:38:21;;;;;;;5.68;2.00;;;;;;;;;;5059535;28;20103;-65
2023/06/13 10:41:10;;;;;;;5.63;2.00;;;;;;;;;;5048702;28;20111;-65
2023/06/13 10:43:40;;;;;;;4.45;1.85;;;;;;;;;;4966371;28;20187;-65
2023/06/13 10:46:06;;;;;;;5.60;1.80;;;;;;;;;;4971360;28;20031;-63
2023/06/13 10:48:50;;;;;;;5.85;2.30;;;;;;;;;;4969940;28;20106;-65
2023/06/13 10:51:36;;;;;;;4.65;2.08;;;;;;;;;;4964953;28;20174;-65
2023/06/13 10:54:11;;;;;;;5.18;2.00;;;;;;;;;;4965043;28;20022;-66
2023/06/13 10:56:42;;;;;;;3.65;2.10;;;;;;;;;;4965656;28;20050;-65
2023/06/13 10:59:10;;;;;;;3.90;2.00;;;;;;;;;;4974999;28;20037;-65
2023/06/13 11:01:36;;;;;;;6.80;2.22;;;;;;;;;;4973679;28;20023;-64
2023/06/13 11:04:11;;;;;;;3.75;2.00;;;;;;;;;;4973879;28;20153;-64
2023/06/13 11:06:38;;;;;;;7.43;2.65;;;;;;;;;;4966325;28;20019;-65
2023/06/13 11:09:21;;;;;;;7.65;2.35;;;;;;;;;;4969625;28;20066;-65
2023/06/13 11:12:05;;;;;;;8.98;2.67;;;;;;;;;;4971889;28;20034;-64
2023/06/13 11:14:36;;;;;;;7.07;2.22;;;;;;;;;;4972183;28;20508;-62
2023/06/13 11:17:02;;;;;;;7.00;2.05;;;;;;;;;;5006051;28;20035;-64
2023/06/13 11:19:28;;;;;;;5.82;2.08;;;;;;;;;;5049562;28;20029;-66
2023/06/13 11:22:21;;;;;;;3.95;2.15;;;;;;;;;;5045959;28;20111;-64
2023/06/13 11:24:47;;;;;;;5.30;2.22;;;;;;;;;;5060968;28;20489;-64
2023/06/13 11:27:15;;;;;;;5.55;2.00;;;;;;;;;;5048898;28;20067;-65
2023/06/13 11:29:41;;;;;;;5.55;2.63;;;;;;;;;;5047994;28;20012;-65
2023/06/13 11:32:08;;;;;;;4.38;2.60;;;;;;;;;;5049408;28;20055;-66
2023/06/13 11:34:36;;;;;;;4.15;2.63;;;;;;;;;;5055171;28;20490;-67
2023/06/13 11:37:05;;;;;;;5.35;3.05;;;;;;;;;;5058324;28;20119;-66
2023/06/13 11:39:35;;;;;;;5.82;3.00;;;;;;;;;;5050449;28;20104;-65
2023/06/13 11:42:01;;;;;;;7.40;2.78;;;;;;;;;;5055190;28;20075;-66
2023/06/13 11:44:26;;;;;;;4.30;2.70;;;;;;;;;;5059128;28;20487;-66
2023/06/13 11:46:51;;;;;;;4.80;2.63;;;;;;;;;;5054579;28;20510;-66
2023/06/13 11:49:17;;;;;;;5.28;2.38;;;;;;;;;;5067939;28;20074;-66
2023/06/13 11:51:43;;;;;;;5.20;2.72;;;;;;;;;;5074807;28;20021;-65
2023/06/13 11:54:08;;;;;;;4.30;2.58;;;;;;;;;;5062069;28;20041;-66
2023/06/13 11:56:40;;;;;;;5.45;2.92;;;;;;;;;;5052904;28;20017;-68
2023/06/13 11:59:35;;;;;;;8.82;3.50;;;;;;;;;;5061271;28;20398;-64
2023/06/13 12:02:00;;;;;;;6.00;3.00;;;;;;;;;;4971819;28;20063;-65
2023/06/13 12:04:26;;;;;;;5.82;2.65;;;;;;;;;;4970163;28;20079;-66
2023/06/13 12:06:52;;;;;;;8.35;3.60;;;;;;;;;;4971255;28;20070;-66
2023/06/13 12:09:17;;;;;;;5.43;2.88;;;;;;;;;;4972030;28;20023;-65
2023/06/13 12:11:43;;;;;;;4.82;2.47;;;;;;;;;;4964279;28;20041;-67
2023/06/13 12:14:08;;;;;;;5.35;2.40;;;;;;;;;;4971305;28;20034;-65
2023/06/13 12:16:35;;;;;;;6.00;2.83;;;;;;;;;;4973117;28;20485;-65
2023/06/13 12:19:00;;;;;;;6.95;2.75;;;;;;;;;;4970481;28;20066;-67
2023/06/13 12:21:28;;;;;;;4.38;2.50;;;;;;;;;;4966101;28;20035;-67
2023/06/13 12:23:53;;;;;;;6.00;2.83;;;;;;;;;;4972355;28;20042;-66
2023/06/13 12:26:19;;;;;;;4.45;2.80;;;;;;;;;;4974874;28;20475;-66
2023/06/13 12:28:44;;;;;;;5.43;2.80;;;;;;;;;;4972514;28;20588;-66
2023/06/13 12:31:10;;;;;;;6.63;2.92;;;;;;;;;;4970009;28;20043;-66
2023/06/13 12:33:36;;;;;;;6.28;2.75;;;;;;;;;;4972432;28;20050;-66
2023/06/13 12:36:03;;;;;;;6.28;2.60;;;;;;;;;;4971741;28;20031;-66
2023/06/13 12:38:32;;;;;;;10.90;3.38;;;;;;;;;;5006153;28;20309;-67
2023/06/13 12:40:57;;;;;;;6.10;2.80;;;;;;;;;;5036823;28;20032;-66
2023/06/13 12:43:26;;;;;;;9.38;2.97;;;;;;;;;;5042524;28;20017;-67
2023/06/13 12:45:54;;;;;;;5.57;2.60;;;;;;;;;;5032362;28;20488;-67
2023/06/13 12:48:22;;;;;;;4.53;2.70;;;;;;;;;;5032983;28;20383;-68
2023/06/13 12:50:48;;;;;;;5.25;2.67;;;;;;;;;;5030234;28;20483;-68
2023/06/13 12:53:17;;;;;;;7.45;2.55;;;;;;;;;;5032133;28;20025;-67
2023/06/13 12:55:43;;;;;;;8.13;2.65;;;;;;;;;;5033037;28;20028;-69
2023/06/13 12:58:31;;;;;;;4.05;2.47;;;;;;;;;;5043244;28;20041;-67
2023/06/13 13:00:57;;;;;;;5.25;2.65;;;;;;;;;;5030169;28;20052;-68
2023/06/13 13:03:23;;;;;;;5.93;2.72;;;;;;;;;;5045014;28;20045;-66
2023/06/13 13:05:51;;;;;;;4.63;2.38;;;;;;;;;;5070350;28;20024;-65
2023/06/13 13:08:17;;;;;;;4.85;2.53;;;;;;;;;;5055126;28;20136;-67
2023/06/13 13:10:43;;;;;;;13.43;3.45;;;;;;;;;;5047559;28;20119;-66
2023/06/13 13:13:08;;;;;;;3.90;2.65;;;;;;;;;;5056948;28;20020;-68
2023/06/13 13:15:40;;;;;;;5.15;2.78;;;;;;;;;;5052884;28;20016;-66
2023/06/13 13:18:06;;;;;;;5.63;2.80;;;;;;;;;;5052303;28;20052;-65
2023/06/13 13:20:34;;;;;;;6.60;2.70;;;;;;;;;;5056453;28;20065;-66
2023/06/13 13:23:00;;;;;;;3.92;2.30;;;;;;;;;;5073448;28;20066;-66
2023/06/13 13:25:25;;;;;;;5.70;3.00;;;;;;;;;;5067263;28;20025;-65
2023/06/13 13:27:54;;;;;;;5.72;2.80;;;;;;;;;;5052541;28;20095;-69
2023/06/13 13:30:20;;;;;;;4.97;2.70;;;;;;;;;;5053753;28;20518;-70
2023/06/13 13:32:46;;;;;;;6.55;2.83;;;;;;;;;;5051529;28;20096;-68
2023/06/13 13:35:12;;;;;;;5.35;2.42;;;;;;;;;;5054619;28;20032;-69
2023/06/13 13:37:37;;;;;;;6.95;2.67;;;;;;;;;;5065830;28;20032;-68
2023/06/13 13:40:04;;;;;;;5.25;2.55;;;;;;;;;;5049090;28;20087;-69
2023/06/13 13:42:36;;;;;;;5.07;2.70;;;;;;;;;;5052704;28;20025;-67
2023/06/13 13:45:01;;;;;;;9.57;2.47;;;;;;;;;;5052639;28;20146;-71
2023/06/13 13:47:26;;;;;;;5.00;2.67;;;;;;;;;;5051767;28;20099;-70
2023/06/13 13:49:53;;;;;;;5.18;2.97;;;;;;;;;;5054968;28;20024;-72
2023/06/13 13:52:18;;;;;;;5.05;2.30;;;;;;;;;;5052483;28;20096;-70
2023/06/13 13:54:44;;;;;;;5.38;2.47;;;;;;;;;;5052680;28;20055;-74
2023/06/13 13:57:10;;;;;;;6.15;2.50;;;;;;;;;;5052173;28;20492;-71
2023/06/13 13:59:35;;;;;;;6.45;2.60;;;;;;;;;;5046251;28;20032;-73
2023/06/13 14:02:01;;;;;;;5.72;2.20;;;;;;;;;;5041684;28;20033;-71
2023/06/13 14:04:28;;;;;;;5.90;2.50;;;;;;;;;;5050324;28;20403;-71
2023/06/13 14:06:53;;;;;;;5.05;2.90;;;;;;;;;;5049049;28;20009;-71
2023/06/13 14:09:18;;;;;;;4.70;2.30;;;;;;;;;;5047512;28;20028;-71
2023/06/13 14:11:44;;;;;;;4.47;2.70;;;;;;;;;;5048799;28;20028;-71
2023/06/13 14:14:09;;;;;;;10.02;2.90;;;;;;;;;;5048892;28;20106;-72
2023/06/13 14:16:34;;;;;;;6.80;2.80;;;;;;;;;;5052255;28;20017;-73
2023/06/13 14:19:00;;;;;;;5.72;2.50;;;;;;;;;;5050448;28;20013;-71
2023/06/13 14:21:25;;;;;;;4.93;2.38;;;;;;;;;;5048417;28;20036;-70
2023/06/13 14:23:53;;;;;;;5.68;2.33;;;;;;;;;;5044439;28;20021;-70
2023/06/13 14:26:18;;;;;;;4.90;2.50;;;;;;;;;;5032190;28;20108;-69
2023/06/13 14:28:43;;;;;;;4.60;2.30;;;;;;;;;;5051204;28;20104;-68
2023/06/13 14:31:09;;;;;;;7.88;2.63;;;;;;;;;;5046444;28;20028;-69
2023/06/13 14:33:34;;;;;;;4.95;2.38;;;;;;;;;;5046894;28;20082;-68
2023/06/13 14:35:59;;;;;;;4.10;2.50;;;;;;;;;;5053579;28;20025;-69
2023/06/13 14:38:25;;;;;;;10.00;2.90;;;;;;;;;;5047585;28;20478;-70
2023/06/13 14:40:51;;;;;;;5.22;2.80;;;;;;;;;;5045391;28;20025;-70
2023/06/13 14:43:16;;;;;;;7.75;2.90;;;;;;;;;;5043689;28;20037;-71
2023/06/13 14:45:44;;;;;;;5.65;2.50;;;;;;;;;;5065319;28;20052;-70
2023/06/13 14:48:10;;;;;;;4.97;2.65;;;;;;;;;;5066140;28;20013;-68
2023/06/13 14:50:36;;;;;;;6.07;2.65;;;;;;;;;;5040344;28;20083;-68
2023/06/13 14:53:02;;;;;;;5.13;2.50;;;;;;;;;;5044048;28;20525;-69